Hartford, Connecticut
Traffic Map
Current Weather Conditions
Hartford, Connecticut
Broken Clouds
Broken Clouds

Feels Like: 4°
Wind Chill: Ceiling: 1900
Heat Index: Visibility: 10mi
Dew Point: Wind: 6mph
Humidity: 76% Direction: ° ()
Pressure: 29.71in Gusts: 0mph
Raw Report DataKHFD 271653Z VRB05KT 10SM BKN019 06/02 A2971 RMK AO2 SLP061 T00610022
Traffic Incident Summary
Active as of:
Severity:
Category:
InformationThere was an issue retrieving the traffic information for this location. Please try a different location or try again shortly.
Advertisements
Track Severe Weather on mobile